createdAt,value
2019-04-07T00:00:28.769Z,72.00
2019-04-07T00:02:56.998Z,72.00
2019-04-07T00:05:25.566Z,72.40
2019-04-07T00:07:54.165Z,72.80
2019-04-07T00:10:22.510Z,73.10
2019-04-07T00:12:50.894Z,72.80
2019-04-07T00:15:19.123Z,72.80
2019-04-07T00:17:47.711Z,72.90
2019-04-07T00:20:16.151Z,73.00
2019-04-07T00:22:44.380Z,73.50
2019-04-07T00:25:13.139Z,73.70
2019-04-07T00:27:41.478Z,74.00
2019-04-07T00:30:09.710Z,73.90
2019-04-07T00:32:37.922Z,73.50
2019-04-07T00:35:06.618Z,73.50
2019-04-07T00:37:34.853Z,73.60
2019-04-07T00:40:03.362Z,73.60
2019-04-07T00:42:31.574Z,73.90
2019-04-07T00:44:59.798Z,73.90
2019-04-07T00:47:28.558Z,73.90
2019-04-07T00:49:56.899Z,73.70
2019-04-07T00:52:25.387Z,73.30
2019-04-07T00:54:53.615Z,73.30
2019-04-07T00:57:21.939Z,73.70
2019-04-07T00:59:50.597Z,74.70
2019-04-07T01:02:18.951Z,73.70
2019-04-07T01:04:47.324Z,73.90
2019-04-07T01:07:15.680Z,73.90
2019-04-07T01:09:44.146Z,73.80
2019-04-07T01:12:12.810Z,73.80
2019-04-07T01:14:41.664Z,73.80
2019-04-07T01:17:10.009Z,73.90
2019-04-07T01:19:38.222Z,73.90
2019-04-07T01:22:06.571Z,74.00
2019-04-07T01:24:35.246Z,74.90
2019-04-07T01:27:03.993Z,74.10
2019-04-07T01:29:33.175Z,74.40
2019-04-07T01:32:01.665Z,74.50
2019-04-07T01:34:30.376Z,74.30
2019-04-07T01:36:58.722Z,74.30
2019-04-07T01:39:27.345Z,75.30
2019-04-07T01:42:00.164Z,74.60
2019-04-07T01:44:36.113Z,74.60
2019-04-07T01:47:06.264Z,74.50
2019-04-07T01:49:45.199Z,74.60
2019-04-07T01:52:15.072Z,74.40
2019-04-07T01:54:48.236Z,74.50
2019-04-07T01:57:26.934Z,74.70
2019-04-07T01:59:59.735Z,74.60
2019-04-07T02:02:45.508Z,74.70
2019-04-07T02:05:31.735Z,74.70
2019-04-07T02:08:04.468Z,74.30
2019-04-07T02:10:35.123Z,74.50
2019-04-07T02:13:20.728Z,74.50
2019-04-07T02:15:57.693Z,74.80
2019-04-07T02:18:28.888Z,74.60
2019-04-07T02:21:08.496Z,74.60
2019-04-07T02:23:50.482Z,74.80
2019-04-07T02:26:20.382Z,75.10
2019-04-07T02:28:50.408Z,75.40
2019-04-07T02:31:23.651Z,75.50
2019-04-07T02:34:11.943Z,75.30
2019-04-07T02:36:54.160Z,75.10
2019-04-07T02:39:27.075Z,75.00
2019-04-07T02:42:15.431Z,75.20
2019-04-07T02:44:57.585Z,75.40
2019-04-07T02:47:39.651Z,75.80
2019-04-07T02:50:10.212Z,76.00
2019-04-07T02:52:49.232Z,75.90
2019-04-07T02:55:34.300Z,76.00
2019-04-07T02:58:13.700Z,76.20
2019-04-07T03:00:44.511Z,76.20
2019-04-07T03:03:14.561Z,76.10
2019-04-07T03:05:54.295Z,76.30
2019-04-07T03:08:39.736Z,76.20
2019-04-07T03:11:16.102Z,76.20
2019-04-07T03:13:52.280Z,76.20
2019-04-07T03:16:31.223Z,76.10
2019-04-07T03:19:13.225Z,76.20
2019-04-07T03:21:55.641Z,76.60
2019-04-07T03:24:44.455Z,76.00
2019-04-07T03:27:33.785Z,76.00
2019-04-07T03:30:06.539Z,76.30
2019-04-07T03:32:46.825Z,76.30
2019-04-07T03:35:25.223Z,76.40
2019-04-07T03:38:06.561Z,76.10
2019-04-07T03:40:51.717Z,76.10
2019-04-07T03:43:21.782Z,76.10
2019-04-07T03:46:00.758Z,76.10
2019-04-07T03:48:42.402Z,76.60
2019-04-07T03:51:28.620Z,76.80
2019-04-07T03:54:05.486Z,76.80
2019-04-07T03:56:38.046Z,76.70
2019-04-07T03:59:07.950Z,76.80
2019-04-07T04:01:54.367Z,76.80
2019-04-07T04:04:39.616Z,76.90
2019-04-07T04:07:28.350Z,76.70
2019-04-07T04:10:01.809Z,76.50
2019-04-07T04:12:41.603Z,76.60
2019-04-07T04:15:11.989Z,76.60
2019-04-07T04:17:41.310Z,76.40
2019-04-07T04:20:10.573Z,76.90
2019-04-07T04:22:39.769Z,77.00
2019-04-07T04:25:08.844Z,77.30
2019-04-07T04:27:38.754Z,77.10
2019-04-07T04:30:10.197Z,77.00
2019-04-07T04:32:39.538Z,77.20
2019-04-07T04:35:08.404Z,77.10
2019-04-07T04:37:44.215Z,77.10
2019-04-07T04:40:07.317Z,77.00
2019-04-07T04:42:35.954Z,77.00
2019-04-07T04:45:06.390Z,77.20
2019-04-07T04:47:34.647Z,77.40
2019-04-07T04:50:03.937Z,77.10
2019-04-07T04:52:32.352Z,77.10
2019-04-07T04:55:01.902Z,76.90
2019-04-07T04:57:30.235Z,77.00
2019-04-07T04:59:59.244Z,77.30
2019-04-07T05:02:27.718Z,77.30
2019-04-07T05:04:56.269Z,77.30
2019-04-07T05:07:24.561Z,77.20
2019-04-07T05:09:55.326Z,77.40
2019-04-07T05:12:23.203Z,77.40
2019-04-07T05:14:51.651Z,77.40
2019-04-07T05:17:19.888Z,78.10
2019-04-07T05:19:48.837Z,77.40
2019-04-07T05:22:17.051Z,77.90
2019-04-07T05:24:45.504Z,78.10
2019-04-07T05:27:13.943Z,78.10
2019-04-07T05:29:42.473Z,78.20
2019-04-07T05:32:11.081Z,78.50
2019-04-07T05:34:40.063Z,78.50
2019-04-07T05:37:08.772Z,78.20
2019-04-07T05:39:38.411Z,78.00
2019-04-07T05:42:07.039Z,77.90
2019-04-07T05:44:35.627Z,77.90
2019-04-07T05:47:03.946Z,78.10
2019-04-07T05:49:32.508Z,78.00
2019-04-07T05:52:04.201Z,78.10
2019-04-07T05:54:30.827Z,78.10
2019-04-07T05:57:01.390Z,78.30
2019-04-07T05:59:29.635Z,78.50
2019-04-07T06:02:01.538Z,78.40
2019-04-07T06:04:29.102Z,78.30
2019-04-07T06:06:58.057Z,78.20
2019-04-07T06:09:26.472Z,78.10
2019-04-07T06:11:54.872Z,78.20
2019-04-07T06:14:24.294Z,77.80
2019-04-07T06:16:54.561Z,77.80
2019-04-07T06:19:22.769Z,77.90
2019-04-07T06:21:51.659Z,77.70
2019-04-07T06:24:22.261Z,78.10
2019-04-07T06:26:50.408Z,78.10
2019-04-07T06:29:19.876Z,78.10
2019-04-07T06:31:48.376Z,78.40
2019-04-07T06:34:17.203Z,78.10
2019-04-07T06:36:46.307Z,77.70
2019-04-07T06:39:17.216Z,78.00
2019-04-07T06:41:45.571Z,77.50
2019-04-07T06:44:18.450Z,77.60
2019-04-07T06:46:45.509Z,77.60
2019-04-07T06:49:27.508Z,77.40
2019-04-07T06:52:08.303Z,77.00
2019-04-07T06:54:53.454Z,76.80
2019-04-07T06:57:28.190Z,76.40
2019-04-07T07:00:04.251Z,76.00
2019-04-07T07:02:46.155Z,75.40
2019-04-07T07:05:33.573Z,75.40
2019-04-07T07:08:02.963Z,75.20
2019-04-07T07:10:37.848Z,75.30
2019-04-07T07:13:28.425Z,75.60
2019-04-07T07:16:00.518Z,75.40
2019-04-07T07:18:30.679Z,75.20
2019-04-07T07:21:04.041Z,75.90
2019-04-07T07:23:37.615Z,75.00
2019-04-07T07:26:06.045Z,74.80
2019-04-07T07:28:34.810Z,74.60
2019-04-07T07:31:03.317Z,74.00
2019-04-07T07:33:31.610Z,74.00
2019-04-07T07:35:59.877Z,73.60
2019-04-07T07:38:32.104Z,73.80
2019-04-07T07:41:01.080Z,73.60
2019-04-07T07:43:29.556Z,72.00
2019-04-07T07:45:58.979Z,71.30
2019-04-07T07:48:28.313Z,72.10
2019-04-07T07:50:56.771Z,72.10
2019-04-07T07:53:27.494Z,71.30
2019-04-07T07:55:55.436Z,70.70
2019-04-07T07:58:28.042Z,70.20
2019-04-07T08:00:54.455Z,70.30
2019-04-07T08:03:22.990Z,69.50
2019-04-07T08:05:52.195Z,69.90
2019-04-07T08:08:21.182Z,68.00
2019-04-07T08:10:50.749Z,68.10
2019-04-07T08:13:19.098Z,68.10
2019-04-07T08:15:47.390Z,68.90
2019-04-07T08:18:15.977Z,68.80
2019-04-07T08:20:45.990Z,69.00
2019-04-07T08:23:14.388Z,68.40
2019-04-07T08:25:42.651Z,68.20
2019-04-07T08:28:11.074Z,76.30
2019-04-07T08:30:43.979Z,73.90
2019-04-07T08:33:09.415Z,69.80
2019-04-07T08:35:39.604Z,66.60
2019-04-07T08:38:07.791Z,68.90
2019-04-07T08:40:37.468Z,68.50
2019-04-07T08:43:06.144Z,71.50
2019-04-07T08:45:35.043Z,70.20
2019-04-07T08:48:04.101Z,73.00
2019-04-07T08:50:33.126Z,70.00
2019-04-07T08:53:02.109Z,71.40
2019-04-07T08:55:30.928Z,72.80
2019-04-07T08:58:01.704Z,66.10
2019-04-07T09:00:31.586Z,69.60
2019-04-07T09:03:04.729Z,66.00
2019-04-07T09:05:31.191Z,69.60
2019-04-07T09:07:59.582Z,66.00
2019-04-07T09:10:29.460Z,65.10
2019-04-07T09:13:01.739Z,63.00
2019-04-07T09:15:43.627Z,63.50
2019-04-07T09:18:15.874Z,62.50
2019-04-07T09:20:57.184Z,61.30
2019-04-07T09:23:35.993Z,60.90
2019-04-07T09:26:10.081Z,60.00
2019-04-07T09:28:37.828Z,60.00
2019-04-07T09:31:08.412Z,59.00
2019-04-07T09:33:53.988Z,59.50
2019-04-07T09:36:24.621Z,57.70
2019-04-07T09:39:00.685Z,56.60
2019-04-07T09:41:44.858Z,54.80
2019-04-07T09:44:14.965Z,51.60
2019-04-07T09:46:48.403Z,53.40
2019-04-07T09:49:21.275Z,53.70
2019-04-07T09:51:53.867Z,50.90
2019-04-07T09:54:24.055Z,50.50
2019-04-07T09:57:05.723Z,49.20
2019-04-07T09:59:35.016Z,45.60
2019-04-07T10:02:21.191Z,43.40
2019-04-07T10:04:57.311Z,47.00
2019-04-07T10:07:42.330Z,47.70
2019-04-07T10:10:14.330Z,40.60
2019-04-07T10:12:59.874Z,41.70
2019-04-07T10:15:47.434Z,40.10
2019-04-07T10:18:34.769Z,39.30
2019-04-07T10:21:05.330Z,41.10
2019-04-07T10:23:35.442Z,45.00
2019-04-07T10:26:21.859Z,42.40
2019-04-07T10:29:01.734Z,40.60
2019-04-07T10:31:40.992Z,41.10
2019-04-07T10:34:26.178Z,38.40
2019-04-07T10:37:12.068Z,42.00
2019-04-07T10:39:44.640Z,41.60
2019-04-07T10:42:14.513Z,39.00
2019-04-07T10:44:57.188Z,37.40
2019-04-07T10:47:27.957Z,38.10
2019-04-07T10:50:03.994Z,36.30
2019-04-07T10:52:39.326Z,38.10
2019-04-07T10:55:15.286Z,39.80
2019-04-07T10:57:51.627Z,38.00
2019-04-07T11:00:26.020Z,40.20
2019-04-07T11:03:08.404Z,37.50
2019-04-07T11:05:55.103Z,36.50
2019-04-07T11:08:34.271Z,37.00
2019-04-07T11:11:21.402Z,37.50
2019-04-07T11:13:51.760Z,36.10
2019-04-07T11:16:24.790Z,37.30
2019-04-07T11:19:00.323Z,37.50
2019-04-07T11:21:39.326Z,34.00
2019-04-07T11:24:21.822Z,36.10
2019-04-07T11:27:01.768Z,37.90
2019-04-07T11:29:41.574Z,36.60
2019-04-07T11:32:12.038Z,35.00
2019-04-07T11:34:58.519Z,35.90
2019-04-07T11:37:40.794Z,35.40
2019-04-07T11:40:20.964Z,36.90
2019-04-07T11:42:56.781Z,35.10
2019-04-07T11:45:27.005Z,34.20
2019-04-07T11:48:03.448Z,34.60
2019-04-07T11:50:50.542Z,34.70
2019-04-07T11:53:27.444Z,31.80
2019-04-07T11:56:03.409Z,34.80
2019-04-07T11:58:37.747Z,32.20
2019-04-07T12:01:12.806Z,33.50
2019-04-07T12:03:41.857Z,35.10
2019-04-07T12:06:23.441Z,33.10
2019-04-07T12:09:02.207Z,34.80
2019-04-07T12:11:35.027Z,34.50
2019-04-07T12:14:09.021Z,32.90
2019-04-07T12:16:41.559Z,32.60
2019-04-07T12:19:26.729Z,30.40
2019-04-07T12:22:02.399Z,31.60
2019-04-07T12:24:49.125Z,33.80
2019-04-07T12:27:35.737Z,32.00
2019-04-07T12:30:10.441Z,32.00
2019-04-07T12:32:40.311Z,33.50
2019-04-07T12:35:10.810Z,32.60
2019-04-07T12:37:42.382Z,30.20
2019-04-07T12:40:12.904Z,30.10
2019-04-07T12:42:59.262Z,30.00
2019-04-07T12:45:48.115Z,30.70
2019-04-07T12:48:31.701Z,30.60
2019-04-07T12:51:12.232Z,30.30
2019-04-07T12:53:42.334Z,29.10
2019-04-07T12:56:33.340Z,29.40
2019-04-07T12:59:05.026Z,31.10
2019-04-07T13:01:34.257Z,31.00
2019-04-07T13:04:20.024Z,31.60
2019-04-07T13:06:53.378Z,30.50
2019-04-07T13:09:33.350Z,31.10
2019-04-07T13:12:06.458Z,30.50
2019-04-07T13:14:40.036Z,29.30
2019-04-07T13:17:07.965Z,29.70
2019-04-07T13:19:50.597Z,29.80
2019-04-07T13:22:36.644Z,29.80
2019-04-07T13:25:23.793Z,31.10
2019-04-07T13:28:03.187Z,32.90
2019-04-07T13:30:39.146Z,34.20
2019-04-07T13:33:09.297Z,31.60
2019-04-07T13:35:39.237Z,32.20
2019-04-07T13:38:26.248Z,29.80
2019-04-07T13:40:59.513Z,30.40
2019-04-07T13:43:36.844Z,28.40
2019-04-07T13:46:21.836Z,29.90
2019-04-07T13:48:51.592Z,30.70
2019-04-07T13:51:24.602Z,31.50
2019-04-07T13:54:10.978Z,32.00
2019-04-07T13:56:57.546Z,30.70
2019-04-07T13:59:33.811Z,30.70
2019-04-07T14:02:09.888Z,29.00
2019-04-07T14:04:45.665Z,30.10
2019-04-07T14:07:19.590Z,29.40
2019-04-07T14:09:53.925Z,30.00
2019-04-07T14:12:24.882Z,28.70
2019-04-07T14:15:01.183Z,29.10
2019-04-07T14:17:41.930Z,29.60
2019-04-07T14:20:11.908Z,30.20
2019-04-07T14:22:42.133Z,31.80
2019-04-07T14:25:18.113Z,31.70
2019-04-07T14:27:54.755Z,31.80
2019-04-07T14:30:24.843Z,31.50
2019-04-07T14:32:54.737Z,32.60
2019-04-07T14:35:24.616Z,31.30
2019-04-07T14:37:54.713Z,32.30
2019-04-07T14:40:26.161Z,32.40
2019-04-07T14:43:11.484Z,31.80
2019-04-07T14:45:48.784Z,32.40
2019-04-07T14:48:28.237Z,32.80
2019-04-07T14:51:15.408Z,33.00
2019-04-07T14:54:03.001Z,32.60
2019-04-07T14:56:35.700Z,32.00
2019-04-07T14:59:10.570Z,33.00
2019-04-07T15:01:43.426Z,33.00
2019-04-07T15:04:11.663Z,32.90
2019-04-07T15:06:40.551Z,32.00
2019-04-07T15:09:13.599Z,32.50
2019-04-07T15:11:44.303Z,31.60
2019-04-07T15:14:13.513Z,31.50
2019-04-07T15:16:42.748Z,32.70
2019-04-07T15:19:11.633Z,33.40
2019-04-07T15:21:40.138Z,32.30
2019-04-07T15:24:08.785Z,32.10
2019-04-07T15:26:37.845Z,31.20
2019-04-07T15:29:09.235Z,31.80
2019-04-07T15:31:36.355Z,32.20
2019-04-07T15:34:08.551Z,32.90
2019-04-07T15:36:34.689Z,32.70
2019-04-07T15:39:05.199Z,32.70
2019-04-07T15:41:33.542Z,32.20
2019-04-07T15:44:06.317Z,32.70
2019-04-07T15:46:31.983Z,30.90
2019-04-07T15:49:00.324Z,31.70
2019-04-07T15:51:29.290Z,31.20
2019-04-07T15:53:58.626Z,32.00
2019-04-07T15:56:27.606Z,31.00
2019-04-07T15:59:00.059Z,32.20
2019-04-07T16:01:25.812Z,31.30
2019-04-07T16:03:54.848Z,32.10
2019-04-07T16:06:23.135Z,31.90
2019-04-07T16:08:51.480Z,31.30
2019-04-07T16:11:24.106Z,31.50
2019-04-07T16:13:49.863Z,31.80
2019-04-07T16:16:18.877Z,31.80
2019-04-07T16:18:47.228Z,33.10
2019-04-07T16:21:16.239Z,32.50
2019-04-07T16:23:47.934Z,33.30
2019-04-07T16:26:15.450Z,34.70
2019-04-07T16:28:46.195Z,35.20
2019-04-07T16:31:13.830Z,36.20
2019-04-07T16:33:43.003Z,36.60
2019-04-07T16:36:11.289Z,36.80
2019-04-07T16:38:39.652Z,36.30
2019-04-07T16:41:08.009Z,35.70
2019-04-07T16:43:37.775Z,37.00
2019-04-07T16:46:06.669Z,36.80
2019-04-07T16:48:39.296Z,36.30
2019-04-07T16:51:05.959Z,36.10
2019-04-07T16:53:36.448Z,35.00
2019-04-07T16:56:05.224Z,34.90
2019-04-07T16:58:36.869Z,35.40
2019-04-07T17:01:04.565Z,36.60
2019-04-07T17:03:32.960Z,35.80
2019-04-07T17:06:02.900Z,36.60
2019-04-07T17:08:31.791Z,36.80
2019-04-07T17:11:04.417Z,36.80
2019-04-07T17:13:38.114Z,36.40
2019-04-07T17:16:00.185Z,37.00
2019-04-07T17:18:40.914Z,37.00
2019-04-07T17:21:15.678Z,36.70
2019-04-07T17:23:45.537Z,37.10
2019-04-07T17:26:14.026Z,37.50
2019-04-07T17:28:45.194Z,36.80
2019-04-07T17:31:13.036Z,37.30
2019-04-07T17:33:41.573Z,37.50
2019-04-07T17:36:10.019Z,37.80
2019-04-07T17:38:39.899Z,37.70
2019-04-07T17:41:09.192Z,38.20
2019-04-07T17:43:50.042Z,38.60
2019-04-07T17:46:30.631Z,38.50
2019-04-07T17:49:10.023Z,38.70
2019-04-07T17:51:56.418Z,38.70
2019-04-07T17:54:28.585Z,39.00
2019-04-07T17:57:01.305Z,39.20
2019-04-07T17:59:38.362Z,39.30
2019-04-07T18:02:19.330Z,39.30
2019-04-07T18:04:52.479Z,39.30
2019-04-07T18:07:44.027Z,40.30
2019-04-07T18:10:16.621Z,40.60
2019-04-07T18:12:49.743Z,41.80
2019-04-07T18:15:27.466Z,41.60
2019-04-07T18:18:14.380Z,41.80
2019-04-07T18:20:48.596Z,42.20
2019-04-07T18:23:32.657Z,42.00
2019-04-07T18:26:17.434Z,42.00
2019-04-07T18:28:59.711Z,42.70
2019-04-07T18:31:30.113Z,42.60
2019-04-07T18:34:04.074Z,42.80
2019-04-07T18:36:40.592Z,44.00
2019-04-07T18:39:27.535Z,43.60
2019-04-07T18:42:06.627Z,44.20
2019-04-07T18:44:44.609Z,43.90
2019-04-07T18:47:20.896Z,44.30
2019-04-07T18:49:52.079Z,44.10
2019-04-07T18:52:22.773Z,44.20
2019-04-07T18:55:00.129Z,44.60
2019-04-07T18:57:30.648Z,45.00
2019-04-07T19:03:05.466Z,45.50
2019-04-07T19:05:38.163Z,45.10
2019-04-07T19:08:08.077Z,45.20
2019-04-07T19:11:08.203Z,45.30
2019-04-07T19:13:39.674Z,44.30
2019-04-07T19:16:20.655Z,44.60
2019-04-07T19:19:07.064Z,44.50
2019-04-07T19:21:53.773Z,45.00
2019-04-07T19:24:31.375Z,44.80
2019-04-07T19:27:13.365Z,45.20
2019-04-07T19:29:39.129Z,46.10
2019-04-07T19:32:06.499Z,44.80
2019-04-07T19:34:53.104Z,45.50
2019-04-07T19:37:24.065Z,45.20
2019-04-07T19:40:00.041Z,45.20
2019-04-07T19:42:28.546Z,45.70
2019-04-07T19:45:03.965Z,45.30
2019-04-07T19:47:41.909Z,45.40
2019-04-07T19:50:28.624Z,43.50
2019-04-07T19:53:11.365Z,44.50
2019-04-07T19:55:39.554Z,44.30
2019-04-07T19:58:18.511Z,44.40
2019-04-07T20:01:04.331Z,44.60
2019-04-07T20:03:49.617Z,45.00
2019-04-07T20:06:36.266Z,45.70
2019-04-07T20:09:11.151Z,45.90
2019-04-07T20:11:43.754Z,46.40
2019-04-07T20:14:30.448Z,45.80
2019-04-07T20:17:04.105Z,45.90
2019-04-07T20:19:53.529Z,46.60
2019-04-07T20:22:32.906Z,47.60
2019-04-07T20:25:18.402Z,46.50
2019-04-07T20:27:56.040Z,45.50
2019-04-07T20:30:29.402Z,45.60
2019-04-07T20:33:06.270Z,46.50
2019-04-07T20:35:45.140Z,45.10
2019-04-07T20:38:21.442Z,45.00
2019-04-07T20:41:00.574Z,45.20
2019-04-07T20:43:36.210Z,44.30
2019-04-07T20:46:17.044Z,44.40
2019-04-07T20:48:56.016Z,44.00
2019-04-07T20:51:28.417Z,44.50
2019-04-07T20:54:02.159Z,44.10
2019-04-07T20:56:35.896Z,45.30
2019-04-07T20:59:26.846Z,45.90
2019-04-07T21:02:12.621Z,46.70
2019-04-07T21:04:53.255Z,47.40
2019-04-07T21:07:23.558Z,49.90
2019-04-07T21:09:56.644Z,50.00
2019-04-07T21:12:28.907Z,49.50
2019-04-07T21:15:21.269Z,49.40
2019-04-07T21:17:42.074Z,49.50
2019-04-07T21:20:23.928Z,49.40
2019-04-07T21:22:54.033Z,48.20
2019-04-07T21:25:30.242Z,48.60
2019-04-07T21:28:09.039Z,49.40
2019-04-07T21:30:39.907Z,48.30
2019-04-07T21:33:09.962Z,47.80
2019-04-07T21:35:55.922Z,49.30
2019-04-07T21:38:41.246Z,50.40
2019-04-07T21:41:20.876Z,49.90
2019-04-07T21:43:51.021Z,49.80
2019-04-07T21:46:36.999Z,49.40
2019-04-07T21:49:07.609Z,49.80
2019-04-07T21:51:37.817Z,48.40
2019-04-07T21:54:26.926Z,47.70
2019-04-07T21:57:03.078Z,48.00
2019-04-07T21:59:42.076Z,47.20
2019-04-07T22:02:12.634Z,47.00
2019-04-07T22:04:52.876Z,46.40
2019-04-07T22:07:33.097Z,46.50
2019-04-07T22:10:07.805Z,47.70
2019-04-07T22:12:36.066Z,47.90
2019-04-07T22:15:06.524Z,47.70
2019-04-07T22:17:37.257Z,47.50
2019-04-07T22:20:08.460Z,46.90
2019-04-07T22:22:36.777Z,47.00
2019-04-07T22:25:07.941Z,47.00
2019-04-07T22:27:36.086Z,47.60
2019-04-07T22:30:07.485Z,48.10
2019-04-07T22:32:36.453Z,48.60
2019-04-07T22:35:06.817Z,49.60
2019-04-07T22:37:35.653Z,49.90
2019-04-07T22:40:13.614Z,50.30
2019-04-07T22:42:45.491Z,49.80
2019-04-07T22:45:11.886Z,50.20
2019-04-07T22:47:40.229Z,49.70
2019-04-07T22:50:09.469Z,50.50
2019-04-07T22:52:38.274Z,51.50
2019-04-07T22:55:08.382Z,52.10
2019-04-07T22:57:37.500Z,51.90
2019-04-07T23:00:09.082Z,52.40
2019-04-07T23:02:38.082Z,51.90
2019-04-07T23:05:07.199Z,51.20
2019-04-07T23:07:35.576Z,52.10
2019-04-07T23:10:04.685Z,52.10
2019-04-07T23:12:33.963Z,52.00
2019-04-07T23:15:02.433Z,51.80
2019-04-07T23:17:30.795Z,51.70
2019-04-07T23:19:59.120Z,51.70
2019-04-07T23:22:27.728Z,52.20
2019-04-07T23:24:56.306Z,52.20
2019-04-07T23:27:24.590Z,52.30
2019-04-07T23:29:52.875Z,52.10
2019-04-07T23:32:21.279Z,52.80
2019-04-07T23:34:49.912Z,53.90
2019-04-07T23:37:18.624Z,54.60
2019-04-07T23:39:47.032Z,55.30
2019-04-07T23:42:15.746Z,55.20
2019-04-07T23:44:44.231Z,54.70
2019-04-07T23:47:13.196Z,54.40
2019-04-07T23:49:41.515Z,54.90
2019-04-07T23:52:09.851Z,56.50
2019-04-07T23:54:38.584Z,56.90
2019-04-07T23:57:07.104Z,57.10
2019-04-07T23:59:35.443Z,55.30
